Time;durP1;ratioP1;P1;durP2;ratioP2;P2;SDS_P1;SDS_P2;PMS_P1;PMS_P2;Temp;Humidity;BMP_temperature;BMP_pressure;BME280_temperature;BME280_humidity;BME280_pressure;Samples;Min_cycle;Max_cycle;Signal;HPM_P1;HPM_P2
2023/06/21 00:00:45;;;;;;;;;;;21.80;99.90;;;;;;7334386;19;109693;-60
2023/06/21 00:03:12;;;;;;;;;;;21.80;99.90;;;;;;7338005;19;108864;-60
2023/06/21 00:05:40;;;;;;;;;;;21.80;99.90;;;;;;7334485;19;109488;-60
2023/06/21 00:08:07;;;;;;;;;;;21.80;99.90;;;;;;7334771;19;110178;-60
2023/06/21 00:10:34;;;;;;;;;;;21.70;99.90;;;;;;7337033;19;109197;-60
2023/06/21 00:13:02;;;;;;;;;;;21.70;99.90;;;;;;7341200;19;108874;-60
2023/06/21 00:15:29;;;;;;;;;;;21.70;99.90;;;;;;7336244;19;108997;-60
2023/06/21 00:17:56;;;;;;;;;;;21.70;99.90;;;;;;7335304;19;108553;-60
2023/06/21 00:20:24;;;;;;;;;;;21.70;99.90;;;;;;7335061;19;110041;-60
2023/06/21 00:22:55;;;;;;;;;;;21.70;99.90;;;;;;7333812;19;109146;-60
2023/06/21 00:25:24;;;;;;;;;;;21.60;99.90;;;;;;7336868;19;114971;-60
2023/06/21 00:27:51;;;;;;;;;;;21.60;99.90;;;;;;7327732;19;109213;-60
2023/06/21 00:30:18;;;;;;;;;;;21.60;99.90;;;;;;7336821;19;108565;-60
2023/06/21 00:32:45;;;;;;;;;;;21.50;99.90;;;;;;7335096;19;109029;-61
2023/06/21 00:35:12;;;;;;;;;;;21.50;99.90;;;;;;7338351;19;109185;-60
2023/06/21 00:37:39;;;;;;;;;;;21.40;99.90;;;;;;7336169;19;108632;-60
2023/06/21 00:40:11;;;;;;;;;;;21.40;99.90;;;;;;7329516;19;109194;-60
2023/06/21 00:42:39;;;;;;;;;;;21.40;99.90;;;;;;7332522;19;109966;-60
2023/06/21 00:45:08;;;;;;;;;;;21.40;99.90;;;;;;7332640;19;109828;-60
2023/06/21 00:47:36;;;;;;;;;;;21.40;99.90;;;;;;7328471;19;110239;-60
2023/06/21 00:50:03;;;;;;;;;;;21.40;99.90;;;;;;7332382;19;110077;-60
2023/06/21 00:52:31;;;;;;;;;;;21.40;99.90;;;;;;7331381;19;109190;-60
2023/06/21 00:54:58;;;;;;;;;;;21.40;99.90;;;;;;7334636;19;110963;-60
2023/06/21 00:57:25;;;;;;;;;;;21.40;99.90;;;;;;7331341;19;109165;-60
2023/06/21 00:59:53;;;;;;;;;;;21.20;99.90;;;;;;7330195;19;109155;-60
2023/06/21 01:02:20;;;;;;;;;;;21.20;99.90;;;;;;7332677;19;109031;-63
2023/06/21 01:04:49;;;;;;;;;;;21.20;99.90;;;;;;7329974;19;110570;-59
2023/06/21 01:07:34;;;;;;;;;;;21.20;99.90;;;;;;7331838;19;109304;-60
2023/06/21 01:10:08;;;;;;;;;;;21.20;99.90;;;;;;7332222;19;108758;-60
2023/06/21 01:12:35;;;;;;;;;;;21.20;99.90;;;;;;7332102;19;108886;-60
2023/06/21 01:15:04;;;;;;;;;;;21.20;99.90;;;;;;7329055;19;110098;-60
2023/06/21 01:17:33;;;;;;;;;;;21.20;99.90;;;;;;7330850;19;110820;-60
2023/06/21 01:20:02;;;;;;;;;;;21.20;99.90;;;;;;7339527;19;109472;-60
2023/06/21 01:22:33;;;;;;;;;;;21.10;99.90;;;;;;7332162;19;108661;-59
2023/06/21 01:25:15;;;;;;;;;;;21.10;99.90;;;;;;7331020;19;108937;-60
2023/06/21 01:27:48;;;;;;;;;;;21.00;99.90;;;;;;7334488;19;110902;-59
2023/06/21 01:30:17;;;;;;;;;;;21.00;99.90;;;;;;7331857;19;108963;-59
2023/06/21 01:32:45;;;;;;;;;;;21.00;99.90;;;;;;7333056;19;110475;-60
2023/06/21 01:35:12;;;;;;;;;;;20.90;99.90;;;;;;7330136;19;110819;-60
2023/06/21 01:37:42;;;;;;;;;;;20.90;99.90;;;;;;7331583;19;108799;-60
2023/06/21 01:40:10;;;;;;;;;;;20.90;99.90;;;;;;7335223;19;109920;-60
2023/06/21 01:42:37;;;;;;;;;;;21.00;99.90;;;;;;7332648;19;109971;-60
2023/06/21 01:45:04;;;;;;;;;;;21.00;99.90;;;;;;7328983;19;109863;-60
2023/06/21 01:47:32;;;;;;;;;;;21.00;99.90;;;;;;7328803;19;110144;-60
2023/06/21 01:50:00;;;;;;;;;;;21.00;99.90;;;;;;7332618;19;108741;-61
2023/06/21 01:52:27;;;;;;;;;;;21.00;99.90;;;;;;7332894;19;109672;-60
2023/06/21 01:54:55;;;;;;;;;;;20.90;99.90;;;;;;7329735;19;111641;-60
2023/06/21 01:57:23;;;;;;;;;;;20.90;99.90;;;;;;7334513;19;110185;-60
2023/06/21 01:59:50;;;;;;;;;;;20.90;99.90;;;;;;7330477;19;108692;-60
2023/06/21 02:02:18;;;;;;;;;;;20.90;99.90;;;;;;7336615;19;111111;-60
2023/06/21 02:04:46;;;;;;;;;;;20.90;99.90;;;;;;7328321;19;110293;-60
2023/06/21 02:07:14;;;;;;;;;;;20.80;99.90;;;;;;7331170;19;110326;-60
2023/06/21 02:09:42;;;;;;;;;;;20.80;99.90;;;;;;7331367;19;109562;-60
2023/06/21 02:12:10;;;;;;;;;;;20.70;99.90;;;;;;7331914;19;109642;-59
2023/06/21 02:14:38;;;;;;;;;;;20.80;99.90;;;;;;7335915;19;109439;-60
2023/06/21 02:17:05;;;;;;;;;;;20.80;99.90;;;;;;7336912;19;109784;-60
2023/06/21 02:19:32;;;;;;;;;;;20.70;99.90;;;;;;7339250;19;108843;-59
2023/06/21 02:21:59;;;;;;;;;;;20.70;99.90;;;;;;7337381;19;109117;-59
2023/06/21 02:24:26;;;;;;;;;;;20.70;99.90;;;;;;7344326;19;108527;-59
2023/06/21 02:26:53;;;;;;;;;;;20.70;99.90;;;;;;7335275;19;109475;-59
2023/06/21 02:29:20;;;;;;;;;;;20.70;99.90;;;;;;7341031;19;109173;-59
2023/06/21 02:31:47;;;;;;;;;;;20.60;99.90;;;;;;7332242;19;108948;-60
2023/06/21 02:34:14;;;;;;;;;;;20.60;99.90;;;;;;7338588;19;110135;-59
2023/06/21 02:36:41;;;;;;;;;;;20.50;99.90;;;;;;7333691;19;108434;-59
2023/06/21 02:39:08;;;;;;;;;;;20.50;99.90;;;;;;7338418;19;109093;-59
2023/06/21 02:41:35;;;;;;;;;;;20.60;99.90;;;;;;7333726;19;109089;-59
2023/06/21 02:44:02;;;;;;;;;;;20.50;99.90;;;;;;7336593;19;108547;-59
2023/06/21 02:46:29;;;;;;;;;;;20.40;99.90;;;;;;7342558;19;110277;-59
2023/06/21 02:48:56;;;;;;;;;;;20.40;99.90;;;;;;7336959;19;108772;-59
2023/06/21 02:51:25;;;;;;;;;;;20.40;99.90;;;;;;7334705;19;108601;-59
2023/06/21 02:53:52;;;;;;;;;;;20.50;99.90;;;;;;7337316;19;109576;-59
2023/06/21 02:56:19;;;;;;;;;;;20.50;99.90;;;;;;7337360;19;109203;-59
2023/06/21 02:58:46;;;;;;;;;;;20.50;99.90;;;;;;7336416;19;109098;-59
2023/06/21 03:01:15;;;;;;;;;;;20.50;99.90;;;;;;7337951;19;109209;-59
2023/06/21 03:03:44;;;;;;;;;;;20.50;99.90;;;;;;7338974;19;109104;-59
2023/06/21 03:06:11;;;;;;;;;;;20.50;99.90;;;;;;7336612;19;108917;-59
2023/06/21 03:08:38;;;;;;;;;;;20.60;99.90;;;;;;7340197;19;110238;-59
2023/06/21 03:11:12;;;;;;;;;;;20.60;99.90;;;;;;7337389;19;111230;-59
2023/06/21 03:13:39;;;;;;;;;;;20.60;99.90;;;;;;7328746;19;109239;-59
2023/06/21 03:16:06;;;;;;;;;;;20.70;99.90;;;;;;7334841;19;108657;-59
2023/06/21 03:18:34;;;;;;;;;;;20.70;99.90;;;;;;7332930;19;110713;-59
2023/06/21 03:21:01;;;;;;;;;;;20.70;99.90;;;;;;7334831;19;109190;-59
2023/06/21 03:23:28;;;;;;;;;;;20.70;99.90;;;;;;7336689;19;108798;-59
2023/06/21 03:25:55;;;;;;;;;;;20.80;99.90;;;;;;7333779;19;108720;-60
2023/06/21 03:28:22;;;;;;;;;;;20.80;99.90;;;;;;7336548;19;109146;-59
2023/06/21 03:30:49;;;;;;;;;;;20.70;99.90;;;;;;7341612;19;109873;-59
2023/06/21 03:33:16;;;;;;;;;;;20.80;99.90;;;;;;7332107;19;109917;-59
2023/06/21 03:35:44;;;;;;;;;;;20.80;99.90;;;;;;7337363;19;108746;-59
2023/06/21 03:38:11;;;;;;;;;;;20.80;99.90;;;;;;7333646;19;108483;-59
2023/06/21 03:40:38;;;;;;;;;;;20.80;99.90;;;;;;7335264;19;109682;-59
2023/06/21 03:43:05;;;;;;;;;;;20.80;99.90;;;;;;7330855;19;110514;-59
2023/06/21 03:45:32;;;;;;;;;;;20.80;99.90;;;;;;7336429;19;108685;-59
2023/06/21 03:48:05;;;;;;;;;;;20.80;99.90;;;;;;7334301;19;109315;-59
2023/06/21 03:50:33;;;;;;;;;;;20.80;99.90;;;;;;7341895;19;108378;-59
2023/06/21 03:53:00;;;;;;;;;;;20.90;99.90;;;;;;7334237;19;110026;-59
2023/06/21 03:55:27;;;;;;;;;;;20.90;99.90;;;;;;7333200;19;108939;-60
2023/06/21 03:57:54;;;;;;;;;;;20.90;99.90;;;;;;7336497;19;109395;-59
2023/06/21 04:00:21;;;;;;;;;;;20.80;99.90;;;;;;7334191;19;109138;-59
2023/06/21 04:02:48;;;;;;;;;;;20.80;99.90;;;;;;7336550;19;111751;-59
2023/06/21 04:05:15;;;;;;;;;;;20.80;99.90;;;;;;7337498;19;110531;-59
2023/06/21 04:07:43;;;;;;;;;;;20.80;99.90;;;;;;7333708;19;109589;-59
2023/06/21 04:10:10;;;;;;;;;;;20.80;99.90;;;;;;7335627;19;108912;-59
2023/06/21 04:12:37;;;;;;;;;;;20.80;99.90;;;;;;7341584;19;108926;-59
2023/06/21 04:15:05;;;;;;;;;;;20.80;99.90;;;;;;7335243;19;108828;-59
2023/06/21 04:17:32;;;;;;;;;;;20.90;99.90;;;;;;7337332;19;109792;-59
2023/06/21 04:19:59;;;;;;;;;;;20.90;99.90;;;;;;7333909;19;109582;-59
2023/06/21 04:22:28;;;;;;;;;;;20.90;99.90;;;;;;7334090;19;109919;-59
2023/06/21 04:24:55;;;;;;;;;;;20.80;99.90;;;;;;7331244;19;108997;-59
2023/06/21 04:27:22;;;;;;;;;;;20.80;99.90;;;;;;7331462;19;109661;-60
2023/06/21 04:29:49;;;;;;;;;;;20.90;99.90;;;;;;7333377;19;109764;-59
2023/06/21 04:32:18;;;;;;;;;;;20.90;99.90;;;;;;7333944;19;109986;-59
2023/06/21 04:34:47;;;;;;;;;;;20.90;99.90;;;;;;7340257;19;109206;-59
2023/06/21 04:37:15;;;;;;;;;;;20.90;99.90;;;;;;7333919;19;109018;-59
2023/06/21 04:39:42;;;;;;;;;;;21.00;99.90;;;;;;7335276;19;109101;-59
2023/06/21 04:42:09;;;;;;;;;;;21.00;99.90;;;;;;7334695;19;109126;-59
2023/06/21 04:44:36;;;;;;;;;;;21.00;99.90;;;;;;7334802;19;108625;-59
2023/06/21 04:47:03;;;;;;;;;;;20.90;99.90;;;;;;7333122;19;109133;-59
2023/06/21 04:49:30;;;;;;;;;;;21.00;99.90;;;;;;7333925;19;108872;-59
2023/06/21 04:51:58;;;;;;;;;;;21.00;99.90;;;;;;7334751;19;108809;-59
2023/06/21 04:54:25;;;;;;;;;;;21.00;99.90;;;;;;7332137;19;109786;-59
2023/06/21 04:56:52;;;;;;;;;;;21.00;99.90;;;;;;7340603;19;110326;-59
2023/06/21 04:59:19;;;;;;;;;;;21.10;99.90;;;;;;7332090;19;109168;-59
2023/06/21 05:01:47;;;;;;;;;;;21.10;99.90;;;;;;7334397;19;108544;-59
2023/06/21 05:04:14;;;;;;;;;;;21.10;99.90;;;;;;7335156;19;108938;-59
2023/06/21 05:06:41;;;;;;;;;;;21.20;99.90;;;;;;7330687;19;109297;-59
2023/06/21 05:09:09;;;;;;;;;;;21.20;99.90;;;;;;7336274;19;108807;-59
2023/06/21 05:11:36;;;;;;;;;;;21.20;99.90;;;;;;7330011;19;110517;-59
2023/06/21 05:14:03;;;;;;;;;;;21.30;99.90;;;;;;7334437;19;111024;-59
2023/06/21 05:16:31;;;;;;;;;;;21.30;99.90;;;;;;7332005;19;109407;-59
2023/06/21 05:18:58;;;;;;;;;;;21.30;99.90;;;;;;7338549;19;108782;-59
2023/06/21 05:21:25;;;;;;;;;;;21.40;99.90;;;;;;7331050;19;110193;-59
2023/06/21 05:23:52;;;;;;;;;;;21.40;99.90;;;;;;7332367;19;109506;-59
2023/06/21 05:26:19;;;;;;;;;;;21.40;99.90;;;;;;7333350;19;110096;-59
2023/06/21 05:28:47;;;;;;;;;;;21.50;99.90;;;;;;7336700;19;110242;-59
2023/06/21 05:31:14;;;;;;;;;;;21.60;99.90;;;;;;7334707;19;111282;-59
2023/06/21 05:33:41;;;;;;;;;;;21.60;99.90;;;;;;7331003;19;109984;-60
2023/06/21 05:36:09;;;;;;;;;;;21.70;99.90;;;;;;7335374;19;108453;-59
2023/06/21 05:38:36;;;;;;;;;;;21.70;99.90;;;;;;7335339;19;108574;-59
2023/06/21 05:41:03;;;;;;;;;;;21.80;99.90;;;;;;7331118;19;108568;-59
2023/06/21 05:43:30;;;;;;;;;;;21.80;99.90;;;;;;7329137;19;109681;-59
2023/06/21 05:45:57;;;;;;;;;;;21.80;99.90;;;;;;7328638;19;109543;-60
2023/06/21 05:48:24;;;;;;;;;;;21.90;99.90;;;;;;7336078;19;109825;-60
2023/06/21 05:50:51;;;;;;;;;;;21.90;99.90;;;;;;7337160;19;109173;-60
2023/06/21 05:53:19;;;;;;;;;;;21.90;99.90;;;;;;7339438;19;109535;-60
2023/06/21 05:55:46;;;;;;;;;;;22.00;99.90;;;;;;7339245;19;108959;-60
2023/06/21 05:58:13;;;;;;;;;;;22.00;99.90;;;;;;7340411;19;109461;-60
2023/06/21 06:00:40;;;;;;;;;;;22.10;99.90;;;;;;7346086;19;109782;-60
2023/06/21 06:03:08;;;;;;;;;;;22.20;99.90;;;;;;7339506;19;108873;-60
2023/06/21 06:05:35;;;;;;;;;;;22.20;99.90;;;;;;7340240;19;109326;-60
2023/06/21 06:08:03;;;;;;;;;;;22.20;99.90;;;;;;7339648;19;108713;-60
2023/06/21 06:10:30;;;;;;;;;;;22.30;99.90;;;;;;7337681;19;109080;-60
2023/06/21 06:12:58;;;;;;;;;;;22.30;99.90;;;;;;7336395;19;114279;-60
2023/06/21 06:15:25;;;;;;;;;;;22.40;99.90;;;;;;7341754;19;108821;-61
2023/06/21 06:17:52;;;;;;;;;;;22.40;99.90;;;;;;7337859;19;108409;-61
2023/06/21 06:20:19;;;;;;;;;;;22.40;99.90;;;;;;7338472;19;110371;-63
2023/06/21 06:22:47;;;;;;;;;;;22.50;99.90;;;;;;7344488;19;109294;-61
2023/06/21 06:25:15;;;;;;;;;;;22.50;99.90;;;;;;7337510;19;109190;-60
2023/06/21 06:27:42;;;;;;;;;;;22.50;99.90;;;;;;7337456;19;110869;-60
2023/06/21 06:30:09;;;;;;;;;;;22.50;99.90;;;;;;7337341;19;108950;-60
2023/06/21 06:32:37;;;;;;;;;;;22.60;99.90;;;;;;7336984;19;109191;-60
2023/06/21 06:35:04;;;;;;;;;;;22.60;99.90;;;;;;7341638;19;108944;-60
2023/06/21 06:37:32;;;;;;;;;;;22.60;99.90;;;;;;7341088;19;109450;-60
2023/06/21 06:39:59;;;;;;;;;;;22.70;99.90;;;;;;7339960;19;109292;-61
2023/06/21 06:42:26;;;;;;;;;;;22.70;99.90;;;;;;7337213;19;110637;-60
2023/06/21 06:44:53;;;;;;;;;;;22.80;99.90;;;;;;7345074;19;108409;-60
2023/06/21 06:47:20;;;;;;;;;;;22.80;99.90;;;;;;7338426;19;109147;-60
2023/06/21 06:49:47;;;;;;;;;;;22.90;99.90;;;;;;7338337;19;109137;-60
2023/06/21 06:52:14;;;;;;;;;;;22.90;99.90;;;;;;7337828;19;109248;-60
2023/06/21 06:54:41;;;;;;;;;;;22.90;99.90;;;;;;7323130;19;112463;-60
2023/06/21 06:57:08;;;;;;;;;;;23.00;99.90;;;;;;7337748;19;108537;-60
2023/06/21 06:59:55;;;;;;;;;;;23.00;99.90;;;;;;7335585;19;110981;-61
2023/06/21 07:02:22;;;;;;;;;;;23.10;99.90;;;;;;7337031;19;108848;-61
2023/06/21 07:04:50;;;;;;;;;;;23.10;99.90;;;;;;7338409;19;108853;-61
2023/06/21 07:07:17;;;;;;;;;;;23.20;99.90;;;;;;7342495;19;109163;-61
2023/06/21 07:09:47;;;;;;;;;;;23.20;99.90;;;;;;7337016;19;109043;-61
2023/06/21 07:12:14;;;;;;;;;;;23.10;99.90;;;;;;7337724;19;110711;-60
2023/06/21 07:14:42;;;;;;;;;;;23.10;99.90;;;;;;7338548;19;109528;-60
2023/06/21 07:17:09;;;;;;;;;;;23.10;99.90;;;;;;7338166;19;110073;-60
2023/06/21 07:19:36;;;;;;;;;;;23.20;99.90;;;;;;7337167;19;110097;-60
2023/06/21 07:22:03;;;;;;;;;;;23.30;99.90;;;;;;7333962;19;109048;-60
2023/06/21 07:24:30;;;;;;;;;;;23.40;99.90;;;;;;7336901;19;108766;-60
2023/06/21 07:26:57;;;;;;;;;;;23.40;99.90;;;;;;7337795;19;109104;-60
2023/06/21 07:29:24;;;;;;;;;;;23.50;99.90;;;;;;7343237;19;108982;-60
2023/06/21 07:31:51;;;;;;;;;;;23.60;99.90;;;;;;7335415;19;109646;-60
2023/06/21 07:34:18;;;;;;;;;;;23.60;99.90;;;;;;7339112;19;108977;-63
2023/06/21 07:36:46;;;;;;;;;;;23.70;99.90;;;;;;7338677;19;109454;-60
2023/06/21 07:39:14;;;;;;;;;;;23.70;99.90;;;;;;7336372;19;110559;-60
2023/06/21 07:41:41;;;;;;;;;;;23.70;99.90;;;;;;7331608;19;110318;-61
2023/06/21 07:44:09;;;;;;;;;;;23.70;99.90;;;;;;7334998;19;109473;-60
2023/06/21 07:46:36;;;;;;;;;;;23.80;99.90;;;;;;7338096;19;109781;-61
2023/06/21 07:49:04;;;;;;;;;;;23.90;99.90;;;;;;7340023;19;108826;-60
2023/06/21 07:51:31;;;;;;;;;;;23.90;99.90;;;;;;7335840;19;110029;-63
2023/06/21 07:53:58;;;;;;;;;;;23.90;99.90;;;;;;7334180;19;110437;-62
2023/06/21 07:56:25;;;;;;;;;;;23.90;99.90;;;;;;7336075;19;109811;-67
2023/06/21 07:58:52;;;;;;;;;;;23.90;99.90;;;;;;7331711;19;110274;-64
2023/06/21 08:01:19;;;;;;;;;;;24.00;99.90;;;;;;7333862;19;109154;-62
2023/06/21 08:03:46;;;;;;;;;;;24.10;99.90;;;;;;7332084;19;109121;-69
2023/06/21 08:06:13;;;;;;;;;;;24.10;99.90;;;;;;7337024;19;109096;-69
2023/06/21 08:08:40;;;;;;;;;;;24.10;99.90;;;;;;7333568;19;110156;-63
2023/06/21 08:11:08;;;;;;;;;;;24.10;99.90;;;;;;7336150;19;109188;-62
2023/06/21 08:13:35;;;;;;;;;;;24.20;99.90;;;;;;7332049;19;108876;-62
2023/06/21 08:16:02;;;;;;;;;;;24.20;99.90;;;;;;7335992;19;108896;-70
2023/06/21 08:18:29;;;;;;;;;;;24.40;99.90;;;;;;7330944;19;109202;-65
2023/06/21 08:20:56;;;;;;;;;;;24.50;99.90;;;;;;7332613;19;111158;-62
2023/06/21 08:23:24;;;;;;;;;;;24.60;99.90;;;;;;7332772;19;110412;-62
2023/06/21 08:25:51;;;;;;;;;;;24.70;99.90;;;;;;7335866;19;109876;-66
2023/06/21 08:28:18;;;;;;;;;;;24.80;99.90;;;;;;7331879;19;110347;-68
2023/06/21 08:30:45;;;;;;;;;;;25.00;99.90;;;;;;7332548;19;109265;-64
2023/06/21 08:33:12;;;;;;;;;;;25.10;99.90;;;;;;7339572;19;110992;-67
2023/06/21 08:35:40;;;;;;;;;;;25.10;99.90;;;;;;7335391;19;108764;-68
2023/06/21 08:38:07;;;;;;;;;;;25.10;99.90;;;;;;7334222;19;110881;-64
2023/06/21 08:40:53;;;;;;;;;;;25.20;99.90;;;;;;7334255;19;109098;-68
2023/06/21 08:43:21;;;;;;;;;;;25.30;99.90;;;;;;7331236;19;108992;-63
2023/06/21 08:45:48;;;;;;;;;;;25.40;99.90;;;;;;7332120;19;109130;-64
2023/06/21 08:48:17;;;;;;;;;;;25.30;99.90;;;;;;7334286;19;109036;-65
2023/06/21 08:50:44;;;;;;;;;;;25.30;99.90;;;;;;7334667;19;109064;-67
2023/06/21 08:53:12;;;;;;;;;;;25.40;99.90;;;;;;7336579;19;109426;-70
2023/06/21 08:55:39;;;;;;;;;;;25.40;99.90;;;;;;7339285;19;109389;-62
2023/06/21 08:58:12;;;;;;;;;;;25.40;99.90;;;;;;7332280;19;110109;-62
2023/06/21 09:00:41;;;;;;;;;;;25.40;99.90;;;;;;7333892;19;108813;-62
2023/06/21 09:03:24;;;;;;;;;;;25.40;99.90;;;;;;7333519;19;108562;-63
2023/06/21 09:05:58;;;;;;;;;;;25.50;99.90;;;;;;7326997;19;109822;-62
2023/06/21 09:08:26;;;;;;;;;;;25.50;99.90;;;;;;7328910;19;109986;-61
2023/06/21 09:10:53;;;;;;;;;;;25.60;99.90;;;;;;7332124;19;108357;-62
2023/06/21 09:13:22;;;;;;;;;;;25.70;99.90;;;;;;7330710;19;110906;-62
2023/06/21 09:15:50;;;;;;;;;;;25.80;99.90;;;;;;7333407;19;110125;-62
2023/06/21 09:18:18;;;;;;;;;;;25.90;99.90;;;;;;7337784;19;109173;-62
2023/06/21 09:20:46;;;;;;;;;;;25.90;99.90;;;;;;7333725;19;108904;-62
2023/06/21 09:23:14;;;;;;;;;;;26.00;99.90;;;;;;7333213;19;109655;-63
2023/06/21 09:25:42;;;;;;;;;;;25.90;99.90;;;;;;7335280;19;110013;-62
2023/06/21 09:28:09;;;;;;;;;;;25.90;99.90;;;;;;7334363;19;108956;-62
2023/06/21 09:33:25;;;;;;;;;;;26.10;99.90;;;;;;7332081;19;110041;-62
2023/06/21 09:35:52;;;;;;;;;;;26.20;99.90;;;;;;7334219;19;108306;-66
2023/06/21 09:38:21;;;;;;;;;;;26.20;99.90;;;;;;7334217;19;110541;-63
2023/06/21 09:40:48;;;;;;;;;;;26.10;99.90;;;;;;7339154;19;109229;-64
2023/06/21 09:43:16;;;;;;;;;;;26.10;99.90;;;;;;7332761;19;108462;-62
2023/06/21 09:45:57;;;;;;;;;;;26.20;99.90;;;;;;7329531;19;110002;-65
2023/06/21 09:48:24;;;;;;;;;;;26.30;99.90;;;;;;7331910;19;108804;-62
2023/06/21 09:50:58;;;;;;;;;;;26.30;99.90;;;;;;7331923;19;109533;-64
2023/06/21 09:53:25;;;;;;;;;;;26.40;99.90;;;;;;7333245;19;109103;-63
2023/06/21 09:55:55;;;;;;;;;;;26.50;99.90;;;;;;7332038;19;108432;-62
2023/06/21 09:58:23;;;;;;;;;;;26.60;99.90;;;;;;7335894;19;108998;-63
2023/06/21 10:00:51;;;;;;;;;;;26.60;99.90;;;;;;7337364;19;109378;-63
2023/06/21 10:03:22;;;;;;;;;;;26.70;99.90;;;;;;7334121;19;110026;-64
2023/06/21 10:05:55;;;;;;;;;;;26.80;99.90;;;;;;7332492;19;109826;-67
2023/06/21 10:08:23;;;;;;;;;;;26.80;99.90;;;;;;7329974;19;109237;-62
2023/06/21 10:10:50;;;;;;;;;;;26.90;99.90;;;;;;7331016;19;109988;-63
2023/06/21 10:13:24;;;;;;;;;;;27.00;99.90;;;;;;7334236;19;109155;-63
2023/06/21 10:15:51;;;;;;;;;;;27.00;99.90;;;;;;7333119;19;108977;-63
2023/06/21 10:18:18;;;;;;;;;;;27.00;99.90;;;;;;7330858;19;110939;-62
2023/06/21 10:20:46;;;;;;;;;;;27.10;99.90;;;;;;7332861;19;109083;-63
2023/06/21 10:23:15;;;;;;;;;;;27.10;99.90;;;;;;7336727;19;108924;-62
2023/06/21 10:25:44;;;;;;;;;;;27.10;99.90;;;;;;7334814;19;109278;-62
2023/06/21 10:28:13;;;;;;;;;;;27.20;99.90;;;;;;7329293;19;111178;-63
2023/06/21 10:30:42;;;;;;;;;;;27.20;99.90;;;;;;7332494;19;108893;-62
2023/06/21 10:33:10;;;;;;;;;;;27.30;99.90;;;;;;7330518;19;113349;-64
2023/06/21 10:35:42;;;;;;;;;;;27.30;99.90;;;;;;7338550;19;108727;-62
2023/06/21 10:38:24;;;;;;;;;;;27.30;99.90;;;;;;7339007;19;108663;-63
2023/06/21 10:40:52;;;;;;;;;;;27.30;99.90;;;;;;7339611;19;109297;-63
2023/06/21 10:43:20;;;;;;;;;;;27.40;99.90;;;;;;7338708;19;109178;-66
2023/06/21 10:45:47;;;;;;;;;;;27.40;99.90;;;;;;7342595;19;108647;-66
2023/06/21 10:48:15;;;;;;;;;;;27.50;99.90;;;;;;7338926;19;108709;-63
2023/06/21 10:50:43;;;;;;;;;;;27.50;99.90;;;;;;7339454;19;108769;-63
2023/06/21 10:53:11;;;;;;;;;;;27.60;99.90;;;;;;7339063;19;112495;-63
2023/06/21 10:55:41;;;;;;;;;;;27.60;99.90;;;;;;7339165;19;108462;-63
2023/06/21 10:58:10;;;;;;;;;;;27.70;99.90;;;;;;7337768;19;108527;-63
2023/06/21 11:00:37;;;;;;;;;;;27.70;99.90;;;;;;7337251;19;109579;-63
2023/06/21 11:03:04;;;;;;;;;;;27.70;99.90;;;;;;7338313;19;108934;-63
2023/06/21 11:05:32;;;;;;;;;;;27.70;99.90;;;;;;7337248;19;108929;-63
2023/06/21 11:08:00;;;;;;;;;;;27.70;99.90;;;;;;7340244;19;110800;-63
2023/06/21 11:10:35;;;;;;;;;;;27.80;99.90;;;;;;7336954;19;109591;-63
2023/06/21 11:13:03;;;;;;;;;;;27.80;99.90;;;;;;7337022;19;110475;-65
2023/06/21 11:15:32;;;;;;;;;;;28.00;99.90;;;;;;7338830;19;108654;-68
2023/06/21 11:17:59;;;;;;;;;;;28.10;99.90;;;;;;7327498;19;109517;-63
2023/06/21 11:20:26;;;;;;;;;;;28.20;99.90;;;;;;7340130;19;109429;-64
2023/06/21 11:23:01;;;;;;;;;;;28.10;99.90;;;;;;7335135;19;109936;-64
2023/06/21 11:25:28;;;;;;;;;;;28.20;99.90;;;;;;7334432;19;109683;-63
2023/06/21 11:28:14;;;;;;;;;;;28.20;99.90;;;;;;7333922;19;110407;-63
2023/06/21 11:31:03;;;;;;;;;;;28.20;99.90;;;;;;7343469;19;108909;-64
2023/06/21 11:33:32;;;;;;;;;;;28.30;99.90;;;;;;7329933;19;110169;-64
2023/06/21 11:36:03;;;;;;;;;;;28.40;99.90;;;;;;7337994;19;108758;-63
2023/06/21 11:38:31;;;;;;;;;;;28.50;99.90;;;;;;7335256;19;108916;-63
2023/06/21 11:40:58;;;;;;;;;;;28.60;99.90;;;;;;7335898;19;111048;-63
2023/06/21 11:43:26;;;;;;;;;;;28.70;99.90;;;;;;7333895;19;109779;-63
2023/06/21 11:45:57;;;;;;;;;;;28.80;99.90;;;;;;7335805;19;108619;-65
2023/06/21 11:48:25;;;;;;;;;;;28.80;99.60;;;;;;7336986;19;109752;-63
2023/06/21 11:50:52;;;;;;;;;;;28.90;99.40;;;;;;7333705;19;108606;-64
2023/06/21 11:53:30;;;;;;;;;;;28.90;98.90;;;;;;7341868;19;109087;-63
2023/06/21 11:55:59;;;;;;;;;;;28.80;98.80;;;;;;7332994;19;108956;-63
2023/06/21 11:58:27;;;;;;;;;;;28.90;99.60;;;;;;7339081;19;108855;-63
2023/06/21 12:00:54;;;;;;;;;;;29.00;99.40;;;;;;7335752;19;109336;-64
2023/06/21 12:03:22;;;;;;;;;;;29.10;99.00;;;;;;7338000;19;108789;-64
2023/06/21 12:05:59;;;;;;;;;;;29.30;99.10;;;;;;7334910;19;109368;-64
2023/06/21 12:08:36;;;;;;;;;;;29.30;99.00;;;;;;7333662;19;110358;-63
2023/06/21 12:11:07;;;;;;;;;;;29.40;98.60;;;;;;7335524;19;114745;-63
2023/06/21 12:13:35;;;;;;;;;;;29.30;98.20;;;;;;7341802;19;110373;-63
2023/06/21 12:16:06;;;;;;;;;;;29.30;97.90;;;;;;7336274;19;109058;-64
2023/06/21 12:18:36;;;;;;;;;;;29.30;98.70;;;;;;7335996;19;109391;-63
2023/06/21 12:21:05;;;;;;;;;;;29.40;98.70;;;;;;7334295;19;110264;-64
2023/06/21 12:23:32;;;;;;;;;;;29.50;97.80;;;;;;7336153;19;108562;-63
2023/06/21 12:26:00;;;;;;;;;;;29.60;96.60;;;;;;7335477;19;110067;-64
2023/06/21 12:28:28;;;;;;;;;;;29.60;97.40;;;;;;7335669;19;111579;-64
2023/06/21 12:30:58;;;;;;;;;;;29.70;97.90;;;;;;7335785;19;109252;-64
2023/06/21 12:33:26;;;;;;;;;;;29.80;97.00;;;;;;7334389;19;108960;-64
2023/06/21 12:36:14;;;;;;;;;;;29.80;97.40;;;;;;7337314;19;110552;-63
2023/06/21 12:38:48;;;;;;;;;;;29.90;97.10;;;;;;7332995;19;108990;-64
2023/06/21 12:41:19;;;;;;;;;;;30.00;97.00;;;;;;7335501;19;110225;-67
2023/06/21 12:43:48;;;;;;;;;;;30.10;97.00;;;;;;7333530;19;110519;-65
2023/06/21 12:46:15;;;;;;;;;;;30.20;96.70;;;;;;7332772;19;110389;-64
2023/06/21 12:48:44;;;;;;;;;;;30.20;96.70;;;;;;7335587;19;109273;-65
2023/06/21 12:51:18;;;;;;;;;;;30.30;96.60;;;;;;7333059;19;109524;-65
2023/06/21 12:53:46;;;;;;;;;;;30.40;96.40;;;;;;7331316;19;108686;-65
2023/06/21 12:56:13;;;;;;;;;;;30.70;96.10;;;;;;7337143;19;110078;-65
2023/06/21 12:58:40;;;;;;;;;;;30.80;96.20;;;;;;7336458;19;109467;-65
2023/06/21 13:01:07;;;;;;;;;;;30.90;95.90;;;;;;7333433;19;109670;-65
2023/06/21 13:03:35;;;;;;;;;;;31.10;96.00;;;;;;7333463;19;109735;-65
2023/06/21 13:06:04;;;;;;;;;;;31.20;95.50;;;;;;7336267;19;110638;-65
2023/06/21 13:08:32;;;;;;;;;;;31.30;95.80;;;;;;7332804;19;109676;-65
2023/06/21 13:11:02;;;;;;;;;;;31.50;95.60;;;;;;7333751;19;108729;-65
2023/06/21 13:13:29;;;;;;;;;;;31.40;94.80;;;;;;7333539;19;109028;-65
2023/06/21 13:15:58;;;;;;;;;;;31.40;94.80;;;;;;7333385;19;110184;-65
2023/06/21 13:18:27;;;;;;;;;;;31.50;94.60;;;;;;7335221;19;108557;-65
2023/06/21 13:21:03;;;;;;;;;;;31.50;94.30;;;;;;7339994;19;114285;-65
2023/06/21 13:23:30;;;;;;;;;;;31.50;94.10;;;;;;7334288;19;108507;-64
2023/06/21 13:25:57;;;;;;;;;;;31.70;94.20;;;;;;7332137;19;108561;-65
2023/06/21 13:28:24;;;;;;;;;;;31.60;93.00;;;;;;7333618;19;109445;-66
2023/06/21 13:30:51;;;;;;;;;;;31.50;92.40;;;;;;7334354;19;109304;-65
2023/06/21 13:33:18;;;;;;;;;;;31.50;92.90;;;;;;7330137;19;109006;-65
2023/06/21 13:35:45;;;;;;;;;;;31.50;92.60;;;;;;7333098;19;110009;-64
2023/06/21 13:38:13;;;;;;;;;;;31.30;91.70;;;;;;7334930;19;108878;-65
2023/06/21 13:40:42;;;;;;;;;;;31.20;91.40;;;;;;7331456;19;110133;-64
2023/06/21 13:43:09;;;;;;;;;;;31.10;90.90;;;;;;7337430;19;109183;-65
2023/06/21 13:45:36;;;;;;;;;;;31.00;91.90;;;;;;7331563;19;111483;-65
2023/06/21 13:48:04;;;;;;;;;;;31.10;92.20;;;;;;7326145;19;110575;-64
2023/06/21 13:50:31;;;;;;;;;;;31.30;93.10;;;;;;7327474;19;108830;-65
2023/06/21 13:52:58;;;;;;;;;;;31.50;92.70;;;;;;7329057;19;108342;-65
2023/06/21 13:55:26;;;;;;;;;;;31.30;90.80;;;;;;7329954;19;109569;-65
2023/06/21 13:57:53;;;;;;;;;;;31.30;92.30;;;;;;7331920;19;109895;-65
2023/06/21 14:00:21;;;;;;;;;;;31.60;91.30;;;;;;7327330;19;110016;-65
2023/06/21 14:02:52;;;;;;;;;;;31.80;91.60;;;;;;7332060;19;110439;-64
2023/06/21 14:05:21;;;;;;;;;;;32.00;91.00;;;;;;7338774;19;108692;-65
2023/06/21 14:07:49;;;;;;;;;;;32.20;90.70;;;;;;7329397;19;110549;-65
2023/06/21 14:10:16;;;;;;;;;;;32.40;90.60;;;;;;7336873;19;110000;-65
2023/06/21 14:12:44;;;;;;;;;;;32.50;89.60;;;;;;7342168;19;108563;-64